createdAt,value
2019-04-10T00:01:12.838Z,99.90
2019-04-10T00:03:46.239Z,99.90
2019-04-10T00:06:18.634Z,99.90
2019-04-10T00:08:51.033Z,99.90
2019-04-10T00:11:20.674Z,99.90
2019-04-10T00:13:53.255Z,99.90
2019-04-10T00:16:22.480Z,99.90
2019-04-10T00:18:51.295Z,99.90
2019-04-10T00:21:20.976Z,99.90
2019-04-10T00:23:57.753Z,99.90
2019-04-10T00:26:29.952Z,99.90
2019-04-10T00:28:58.865Z,99.90
2019-04-10T00:31:31.821Z,99.90
2019-04-10T00:34:01.065Z,99.90
2019-04-10T00:36:30.057Z,99.90
2019-04-10T00:38:58.865Z,99.90
2019-04-10T00:41:28.159Z,99.90
2019-04-10T00:43:57.357Z,99.90
2019-04-10T00:46:26.340Z,99.90
2019-04-10T00:48:56.268Z,99.90
2019-04-10T00:51:26.063Z,99.90
2019-04-10T00:53:57.965Z,99.90
2019-04-10T00:56:26.805Z,99.90
2019-04-10T00:58:55.669Z,99.90
2019-04-10T01:01:24.672Z,99.90
2019-04-10T01:04:00.140Z,99.90
2019-04-10T01:06:35.735Z,99.90
2019-04-10T01:09:13.189Z,99.90
2019-04-10T01:11:49.744Z,99.90
2019-04-10T01:14:18.022Z,99.90
2019-04-10T01:16:52.757Z,99.90
2019-04-10T01:19:21.740Z,99.90
2019-04-10T01:21:50.751Z,99.90
2019-04-10T01:24:19.614Z,99.90
2019-04-10T01:26:51.736Z,99.90
2019-04-10T01:29:21.648Z,99.90
2019-04-10T01:31:51.243Z,99.90
2019-04-10T01:34:23.405Z,99.90
2019-04-10T01:36:52.398Z,99.90
2019-04-10T01:39:40.311Z,99.90
2019-04-10T01:42:09.246Z,99.90
2019-04-10T01:44:38.597Z,99.90
2019-04-10T01:47:10.890Z,99.90
2019-04-10T01:49:42.617Z,99.90
2019-04-10T01:52:11.446Z,99.90
2019-04-10T01:54:45.582Z,99.90
2019-04-10T01:57:17.041Z,99.90
2019-04-10T01:59:45.923Z,99.90
2019-04-10T02:02:39.870Z,99.90
2019-04-10T02:05:08.929Z,99.90
2019-04-10T02:07:38.251Z,99.90
2019-04-10T02:10:10.478Z,99.90
2019-04-10T02:12:45.234Z,99.90
2019-04-10T02:15:15.772Z,99.90
2019-04-10T02:17:46.629Z,99.90
2019-04-10T02:20:16.081Z,99.90
2019-04-10T02:22:48.088Z,99.90
2019-04-10T02:25:17.935Z,99.90
2019-04-10T02:27:50.843Z,99.90
2019-04-10T02:30:21.909Z,99.90
2019-04-10T02:32:52.872Z,99.90
2019-04-10T02:35:24.764Z,99.90
2019-04-10T02:37:56.048Z,99.90
2019-04-10T02:40:26.247Z,99.90
2019-04-10T02:42:59.093Z,99.90
2019-04-10T02:45:28.286Z,99.90
2019-04-10T02:48:04.018Z,99.90
2019-04-10T02:50:35.261Z,99.90
2019-04-10T02:53:07.751Z,99.90
2019-04-10T02:55:36.981Z,99.90
2019-04-10T02:58:06.217Z,99.90
2019-04-10T03:00:36.095Z,99.90
2019-04-10T03:03:06.522Z,99.90
2019-04-10T03:05:35.545Z,99.90
2019-04-10T03:08:11.568Z,99.90
2019-04-10T03:10:51.752Z,99.90
2019-04-10T03:13:15.219Z,99.90
2019-04-10T03:15:44.032Z,99.90
2019-04-10T03:18:14.778Z,99.90
2019-04-10T03:20:44.695Z,99.90
2019-04-10T03:23:17.567Z,99.90
2019-04-10T03:25:46.513Z,99.90
2019-04-10T03:28:21.586Z,99.90
2019-04-10T03:30:50.401Z,99.90
2019-04-10T03:33:44.603Z,99.90
2019-04-10T03:36:13.857Z,99.90
2019-04-10T03:38:56.799Z,99.90
2019-04-10T03:41:19.853Z,99.90
2019-04-10T03:43:48.645Z,99.90
2019-04-10T03:46:23.604Z,99.90
2019-04-10T03:48:55.635Z,99.90
2019-04-10T03:51:28.306Z,99.90
2019-04-10T03:53:58.383Z,99.90
2019-04-10T03:56:27.640Z,99.90
2019-04-10T03:59:04.139Z,99.90
2019-04-10T04:01:31.894Z,99.90
2019-04-10T04:04:05.074Z,99.90
2019-04-10T04:06:31.602Z,99.90
2019-04-10T04:09:11.951Z,99.90
2019-04-10T04:11:46.119Z,99.90
2019-04-10T04:14:14.834Z,99.90
2019-04-10T04:16:43.801Z,99.90
2019-04-10T04:19:15.650Z,99.90
2019-04-10T04:21:44.545Z,99.90
2019-04-10T04:24:13.548Z,99.90
2019-04-10T04:26:43.582Z,99.90
2019-04-10T04:29:16.414Z,99.90
2019-04-10T04:31:45.291Z,99.90
2019-04-10T04:34:14.378Z,99.90
2019-04-10T04:36:43.285Z,99.90
2019-04-10T04:39:23.208Z,99.90
2019-04-10T04:41:45.790Z,99.90
2019-04-10T04:44:14.672Z,99.90
2019-04-10T04:46:43.524Z,99.90
2019-04-10T04:49:13.366Z,99.90
2019-04-10T04:51:43.690Z,99.90
2019-04-10T04:54:19.242Z,99.90
2019-04-10T04:56:51.209Z,99.90
2019-04-10T04:59:23.970Z,99.90
2019-04-10T05:01:58.824Z,99.90
2019-04-10T05:04:27.681Z,99.90
2019-04-10T05:06:57.677Z,99.90
2019-04-10T05:09:33.340Z,99.90
2019-04-10T05:12:00.672Z,99.90
2019-04-10T05:14:29.765Z,99.90
2019-04-10T05:17:01.811Z,99.90
2019-04-10T05:19:34.086Z,99.90
2019-04-10T05:22:02.901Z,99.90
2019-04-10T05:24:32.047Z,99.90
2019-04-10T05:27:01.374Z,99.90
2019-04-10T05:29:31.098Z,99.90
2019-04-10T05:32:03.390Z,99.90
2019-04-10T05:34:32.332Z,99.90
2019-04-10T05:37:11.646Z,99.90
2019-04-10T05:39:43.166Z,99.90
2019-04-10T05:42:08.513Z,99.90
2019-04-10T05:44:38.147Z,99.90
2019-04-10T05:47:10.446Z,99.90
2019-04-10T05:49:41.490Z,99.90
2019-04-10T05:52:13.378Z,99.90
2019-04-10T05:54:43.753Z,99.90
2019-04-10T05:57:12.736Z,99.90
2019-04-10T05:59:44.614Z,99.90
2019-04-10T06:02:13.868Z,99.90
2019-04-10T06:04:43.305Z,99.90
2019-04-10T06:07:12.754Z,99.90
2019-04-10T06:09:52.018Z,99.90
2019-04-10T06:12:12.132Z,99.90
2019-04-10T06:14:50.497Z,99.90
2019-04-10T06:17:22.708Z,99.90
2019-04-10T06:19:51.598Z,99.90
2019-04-10T06:22:20.777Z,99.90
2019-04-10T06:24:52.914Z,99.90
2019-04-10T06:27:21.732Z,99.90
2019-04-10T06:29:59.564Z,99.90
2019-04-10T06:32:31.709Z,99.90
2019-04-10T06:35:02.198Z,99.90
2019-04-10T06:37:34.540Z,99.90
2019-04-10T06:40:10.801Z,99.90
2019-04-10T06:42:44.551Z,99.90
2019-04-10T06:45:05.752Z,99.90
2019-04-10T06:47:38.256Z,99.90
2019-04-10T06:50:07.885Z,99.90
2019-04-10T06:52:37.074Z,99.90
2019-04-10T06:55:06.350Z,99.90
2019-04-10T06:57:47.670Z,99.90
2019-04-10T07:00:12.155Z,99.90
2019-04-10T07:02:38.870Z,99.90
2019-04-10T07:05:10.558Z,99.90
2019-04-10T07:07:49.513Z,99.90
2019-04-10T07:10:26.117Z,99.90
2019-04-10T07:12:45.785Z,99.90
2019-04-10T07:15:19.126Z,99.90
2019-04-10T07:17:47.123Z,99.90
2019-04-10T07:20:19.141Z,99.90
2019-04-10T07:22:48.527Z,99.90
2019-04-10T07:25:21.800Z,99.90
2019-04-10T07:27:52.250Z,99.90
2019-04-10T07:30:26.099Z,99.90
2019-04-10T07:32:55.179Z,99.90
2019-04-10T07:35:24.110Z,99.90
2019-04-10T07:37:55.957Z,99.90
2019-04-10T07:40:24.848Z,99.90
2019-04-10T07:42:54.584Z,99.90
2019-04-10T07:45:26.357Z,99.90
2019-04-10T07:47:54.381Z,99.90
2019-04-10T07:50:23.406Z,99.90
2019-04-10T07:52:52.377Z,99.90
2019-04-10T07:55:23.584Z,99.90
2019-04-10T07:57:53.101Z,99.90
2019-04-10T08:00:22.316Z,99.90
2019-04-10T08:02:51.618Z,99.90
2019-04-10T08:05:20.986Z,99.90
2019-04-10T08:07:49.811Z,99.90
2019-04-10T08:10:19.966Z,99.90
2019-04-10T08:12:53.036Z,99.90
2019-04-10T08:15:20.920Z,99.90
2019-04-10T08:17:51.242Z,99.90
2019-04-10T08:20:20.384Z,99.90
2019-04-10T08:22:49.255Z,99.90
2019-04-10T08:25:22.809Z,99.90
2019-04-10T08:27:48.709Z,99.90
2019-04-10T08:30:18.037Z,99.90
2019-04-10T08:32:56.144Z,99.90
2019-04-10T08:35:17.840Z,99.90
2019-04-10T08:37:46.942Z,99.90
2019-04-10T08:40:23.141Z,99.90
2019-04-10T08:42:52.615Z,99.90
2019-04-10T08:45:21.560Z,99.90
2019-04-10T08:47:50.812Z,99.90
2019-04-10T08:50:19.891Z,99.90
2019-04-10T08:52:50.029Z,99.90
2019-04-10T08:55:19.141Z,99.90
2019-04-10T08:57:48.153Z,99.90
2019-04-10T09:00:18.512Z,99.90
2019-04-10T09:02:50.627Z,99.90
2019-04-10T09:05:19.639Z,99.90
2019-04-10T09:07:52.628Z,99.90
2019-04-10T09:10:22.599Z,99.90
2019-04-10T09:12:54.363Z,99.90
2019-04-10T09:15:22.183Z,99.90
2019-04-10T09:17:51.457Z,99.90
2019-04-10T09:20:20.531Z,99.90
2019-04-10T09:23:10.651Z,99.90
2019-04-10T09:25:26.995Z,99.90
2019-04-10T09:27:56.351Z,99.90
2019-04-10T09:30:31.128Z,99.90
2019-04-10T09:33:15.770Z,99.90
2019-04-10T09:35:33.975Z,99.90
2019-04-10T09:38:02.871Z,99.90
2019-04-10T09:40:32.066Z,99.90
2019-04-10T09:43:07.334Z,99.90
2019-04-10T09:45:37.964Z,99.90
2019-04-10T09:48:13.176Z,99.90
2019-04-10T09:50:43.906Z,99.90
2019-04-10T09:53:13.400Z,99.90
2019-04-10T09:55:42.657Z,99.90
2019-04-10T09:58:11.618Z,99.90
2019-04-10T10:00:43.658Z,99.90
2019-04-10T10:03:11.851Z,99.90
2019-04-10T10:05:40.751Z,99.90
2019-04-10T10:08:10.601Z,99.90
2019-04-10T10:10:42.400Z,99.90
2019-04-10T10:13:18.307Z,99.90
2019-04-10T10:15:54.572Z,99.90
2019-04-10T10:18:27.979Z,99.90
2019-04-10T10:20:57.424Z,99.90
2019-04-10T10:23:29.714Z,99.90
2019-04-10T10:25:59.649Z,99.90
2019-04-10T10:28:29.350Z,99.90
2019-04-10T10:30:59.858Z,99.90
2019-04-10T10:33:31.993Z,99.90
2019-04-10T10:36:00.962Z,99.90
2019-04-10T10:38:32.717Z,99.90
2019-04-10T10:41:08.603Z,99.90
2019-04-10T10:43:37.685Z,99.90
2019-04-10T10:46:07.197Z,99.90
2019-04-10T10:48:36.171Z,99.90
2019-04-10T10:51:06.598Z,99.90
2019-04-10T10:53:36.419Z,99.90
2019-04-10T10:56:08.475Z,99.90
2019-04-10T10:58:40.381Z,99.90
2019-04-10T11:01:18.105Z,99.90
2019-04-10T11:03:47.030Z,99.90
2019-04-10T11:06:16.653Z,99.90
2019-04-10T11:08:49.909Z,99.90
2019-04-10T11:11:22.581Z,99.90
2019-04-10T11:13:55.086Z,99.90
2019-04-10T11:16:24.834Z,99.90
2019-04-10T11:18:57.534Z,99.90
2019-04-10T11:21:24.827Z,99.90
2019-04-10T11:23:55.507Z,99.90
2019-04-10T11:26:25.718Z,99.90
2019-04-10T11:28:55.727Z,99.90
2019-04-10T11:31:25.208Z,99.90
2019-04-10T11:33:56.434Z,99.90
2019-04-10T11:36:25.892Z,99.90
2019-04-10T11:39:10.233Z,99.90
2019-04-10T11:41:31.165Z,99.90
2019-04-10T11:44:00.561Z,99.90
2019-04-10T11:46:32.137Z,99.90
2019-04-10T11:49:00.910Z,99.90
2019-04-10T11:51:31.896Z,99.90
2019-04-10T11:54:02.138Z,98.10
2019-04-10T11:56:36.215Z,95.90
2019-04-10T11:59:11.582Z,90.30
2019-04-10T12:01:39.448Z,91.80
2019-04-10T12:04:10.712Z,89.60
2019-04-10T12:06:40.333Z,89.50
2019-04-10T12:10:01.393Z,78.20
2019-04-10T12:11:46.994Z,68.90
2019-04-10T12:14:19.487Z,72.30
2019-04-10T12:16:55.833Z,71.60
2019-04-10T12:19:25.149Z,60.90
2019-04-10T12:21:58.037Z,55.10
2019-04-10T12:24:34.163Z,54.00
2019-04-10T12:27:04.438Z,52.60
2019-04-10T12:29:33.534Z,52.60
2019-04-10T12:32:02.379Z,51.40
2019-04-10T12:34:32.136Z,49.50
2019-04-10T12:37:04.190Z,49.10
2019-04-10T12:39:33.211Z,47.60
2019-04-10T12:42:06.670Z,49.20
2019-04-10T12:44:35.999Z,48.60
2019-04-10T12:47:05.758Z,51.10
2019-04-10T12:49:34.629Z,49.10
2019-04-10T12:52:03.618Z,47.80
2019-04-10T12:54:42.740Z,48.10
2019-04-10T12:57:12.735Z,48.50
2019-04-10T12:59:45.833Z,48.30
2019-04-10T13:02:18.720Z,46.20
2019-04-10T13:04:47.630Z,44.80
2019-04-10T13:07:16.541Z,45.60
2019-04-10T13:09:46.311Z,45.80
2019-04-10T13:12:20.871Z,44.70
2019-04-10T13:14:50.672Z,44.20
2019-04-10T13:17:20.267Z,42.70
2019-04-10T13:19:53.379Z,42.60
2019-04-10T13:22:34.193Z,45.00
2019-04-10T13:25:06.095Z,42.00
2019-04-10T13:27:41.121Z,41.70
2019-04-10T13:30:14.479Z,42.20
2019-04-10T13:32:44.356Z,42.30
2019-04-10T13:35:13.984Z,42.20
2019-04-10T13:37:43.480Z,41.90
2019-04-10T13:40:15.217Z,40.80
2019-04-10T13:42:45.398Z,42.70
2019-04-10T13:45:17.432Z,43.70
2019-04-10T13:47:52.477Z,42.50
2019-04-10T13:50:24.562Z,43.50
2019-04-10T13:52:54.136Z,42.60
2019-04-10T13:55:28.354Z,42.10
2019-04-10T13:58:00.076Z,41.60
2019-04-10T14:00:39.990Z,43.40
2019-04-10T14:03:08.133Z,42.20
2019-04-10T14:05:41.686Z,41.80
2019-04-10T14:08:12.555Z,41.30
2019-04-10T14:10:42.013Z,42.80
2019-04-10T14:13:11.617Z,40.50
2019-04-10T14:15:40.917Z,42.00
2019-04-10T14:18:14.403Z,43.70
2019-04-10T14:20:46.249Z,44.80
2019-04-10T14:23:28.606Z,41.60
2019-04-10T14:26:16.311Z,43.50
2019-04-10T14:28:46.196Z,42.10
2019-04-10T14:31:23.111Z,42.50
2019-04-10T14:33:53.217Z,43.70
2019-04-10T14:36:22.492Z,44.00
2019-04-10T14:38:51.701Z,45.40
2019-04-10T14:41:21.998Z,44.70
2019-04-10T14:43:51.054Z,47.60
2019-04-10T14:46:20.747Z,46.10
2019-04-10T14:48:49.665Z,48.40
2019-04-10T14:51:18.570Z,47.40
2019-04-10T14:53:47.614Z,44.80
2019-04-10T14:56:17.760Z,46.70
2019-04-10T14:58:50.694Z,46.10
2019-04-10T15:01:23.985Z,47.20
2019-04-10T15:03:52.978Z,46.50
2019-04-10T15:06:23.435Z,46.30
2019-04-10T15:08:59.878Z,45.40
2019-04-10T15:11:32.950Z,44.80
2019-04-10T15:14:03.887Z,43.10
2019-04-10T15:16:33.541Z,44.00
2019-04-10T15:19:05.590Z,44.20
2019-04-10T15:21:34.766Z,42.40
2019-04-10T15:24:06.991Z,43.50
2019-04-10T15:26:36.183Z,42.90
2019-04-10T15:29:05.850Z,42.20
2019-04-10T15:31:35.448Z,42.60
2019-04-10T15:34:07.353Z,40.70
2019-04-10T15:36:36.279Z,40.60
2019-04-10T15:39:10.592Z,40.20
2019-04-10T15:41:39.778Z,41.30
2019-04-10T15:44:14.990Z,39.90
2019-04-10T15:46:48.980Z,39.10
2019-04-10T15:49:20.876Z,39.70
2019-04-10T15:51:50.171Z,42.20
2019-04-10T15:54:19.105Z,41.00
2019-04-10T15:56:48.145Z,41.20
2019-04-10T15:59:17.118Z,41.70
2019-04-10T16:01:46.888Z,41.30
2019-04-10T16:04:17.116Z,42.80
2019-04-10T16:06:47.299Z,43.40
2019-04-10T16:09:17.045Z,42.20
2019-04-10T16:11:54.342Z,43.20
2019-04-10T16:14:27.323Z,44.10
2019-04-10T16:17:10.081Z,42.70
2019-04-10T16:20:16.158Z,42.90
2019-04-10T16:23:08.056Z,42.80
2019-04-10T16:25:38.088Z,41.20
2019-04-10T16:28:08.065Z,39.70
2019-04-10T16:30:37.203Z,41.30
2019-04-10T16:33:07.091Z,40.50
2019-04-10T16:35:39.956Z,41.20
2019-04-10T16:38:09.117Z,41.40
2019-04-10T16:40:38.410Z,42.80
2019-04-10T16:43:13.947Z,42.30
2019-04-10T16:45:46.785Z,43.90
2019-04-10T16:48:16.950Z,43.80
2019-04-10T16:50:49.729Z,44.00
2019-04-10T16:53:18.777Z,44.70
2019-04-10T16:55:51.294Z,44.10
2019-04-10T16:58:20.487Z,45.40
2019-04-10T17:00:50.968Z,47.80
2019-04-10T17:03:22.878Z,48.50
2019-04-10T17:05:53.626Z,51.90
2019-04-10T17:08:23.735Z,52.70
2019-04-10T17:10:52.824Z,54.80
2019-04-10T17:13:22.457Z,55.20
2019-04-10T17:15:51.762Z,58.10
2019-04-10T17:18:24.878Z,61.50
2019-04-10T17:20:57.272Z,60.10
2019-04-10T17:23:32.256Z,61.90
2019-04-10T17:26:02.458Z,66.60
2019-04-10T17:28:32.315Z,67.10
2019-04-10T17:31:02.358Z,79.10
2019-04-10T17:33:32.347Z,74.00
2019-04-10T17:36:02.239Z,80.80
2019-04-10T17:38:32.176Z,82.90
2019-04-10T17:41:04.169Z,79.10
2019-04-10T17:43:32.853Z,82.80
2019-04-10T17:46:05.313Z,79.40
2019-04-10T17:48:35.402Z,90.10
2019-04-10T17:51:07.850Z,89.70
2019-04-10T17:53:41.982Z,92.30
2019-04-10T17:56:11.748Z,93.10
2019-04-10T17:58:41.473Z,93.90
2019-04-10T18:01:13.422Z,95.20
2019-04-10T18:03:50.822Z,96.30
2019-04-10T18:06:15.132Z,98.20
2019-04-10T18:08:47.186Z,98.20
2019-04-10T18:11:16.595Z,99.90
2019-04-10T18:13:49.179Z,99.90
2019-04-10T18:16:18.533Z,99.90
2019-04-10T18:18:48.602Z,99.90
2019-04-10T18:21:17.976Z,99.90
2019-04-10T18:23:47.370Z,99.90
2019-04-10T18:26:20.278Z,99.90
2019-04-10T18:28:51.889Z,99.90
2019-04-10T18:31:24.835Z,99.90
2019-04-10T18:33:55.207Z,99.90
2019-04-10T18:36:27.805Z,99.90
2019-04-10T18:42:43.412Z,99.90
2019-04-10T18:45:19.600Z,99.90
2019-04-10T18:47:52.635Z,99.90
2019-04-10T18:50:24.486Z,99.90
2019-04-10T18:52:54.163Z,99.90
2019-04-10T18:55:28.036Z,99.90
2019-04-10T18:57:57.672Z,99.90
2019-04-10T19:00:48.574Z,99.90
2019-04-10T19:03:46.161Z,99.90
2019-04-10T19:06:21.288Z,99.90
2019-04-10T19:09:04.512Z,99.90
2019-04-10T19:11:26.342Z,99.90
2019-04-10T19:13:55.385Z,99.90
2019-04-10T19:16:25.748Z,99.90
2019-04-10T19:18:56.769Z,99.90
2019-04-10T19:21:27.250Z,99.90
2019-04-10T19:23:57.684Z,99.90
2019-04-10T19:26:28.134Z,99.90
2019-04-10T19:28:59.181Z,99.90
2019-04-10T19:31:29.869Z,99.90
2019-04-10T19:34:05.179Z,99.90
2019-04-10T19:36:37.981Z,99.90
2019-04-10T19:39:09.663Z,99.90
2019-04-10T19:41:41.495Z,99.90
2019-04-10T19:44:14.835Z,99.90
2019-04-10T19:46:45.921Z,99.90
2019-04-10T19:49:20.271Z,99.90
2019-04-10T19:51:50.851Z,99.90
2019-04-10T19:54:20.623Z,99.90
2019-04-10T19:56:53.414Z,99.90
2019-04-10T19:59:24.920Z,99.90
2019-04-10T20:01:54.970Z,99.90
2019-04-10T20:04:28.408Z,99.90
2019-04-10T20:07:40.852Z,99.90
2019-04-10T20:10:14.959Z,99.90
2019-04-10T20:12:44.674Z,99.90
2019-04-10T20:15:18.426Z,99.90
2019-04-10T20:17:48.337Z,99.90
2019-04-10T20:20:21.520Z,99.90
2019-04-10T20:22:50.773Z,99.90
2019-04-10T20:25:20.546Z,99.90
2019-04-10T20:27:50.175Z,99.90
2019-04-10T20:30:24.202Z,99.90
2019-04-10T20:33:06.354Z,99.90
2019-04-10T20:35:36.306Z,99.90
2019-04-10T20:38:05.746Z,99.90
2019-04-10T20:40:36.094Z,99.90
2019-04-10T20:43:06.763Z,99.90
2019-04-10T20:45:37.964Z,99.90
2019-04-10T20:48:08.581Z,99.90
2019-04-10T20:50:38.166Z,99.90
2019-04-10T20:53:11.617Z,99.90
2019-04-10T20:55:44.109Z,99.90
2019-04-10T20:58:22.014Z,99.90
2019-04-10T21:00:51.934Z,99.90
2019-04-10T21:03:20.916Z,99.90
2019-04-10T21:05:50.718Z,99.90
2019-04-10T21:08:22.565Z,99.90
2019-04-10T21:10:56.869Z,99.90
2019-04-10T21:13:29.822Z,99.90
2019-04-10T21:16:02.973Z,99.90
2019-04-10T21:18:35.593Z,99.90
2019-04-10T21:21:10.301Z,99.90
2019-04-10T21:23:40.007Z,99.90
2019-04-10T21:26:12.191Z,99.90
2019-04-10T21:28:41.582Z,99.90
2019-04-10T21:31:52.304Z,99.90
2019-04-10T21:34:28.562Z,99.90
2019-04-10T21:36:57.685Z,99.90
2019-04-10T21:39:27.739Z,99.90
2019-04-10T21:42:09.291Z,99.90
2019-04-10T21:44:28.959Z,99.90
2019-04-10T21:46:59.194Z,99.90
2019-04-10T21:49:28.414Z,99.90
2019-04-10T21:52:00.550Z,99.90
2019-04-10T21:54:32.817Z,99.90
2019-04-10T21:57:01.878Z,99.90
2019-04-10T21:59:36.805Z,99.90
2019-04-10T22:02:09.138Z,99.90
2019-04-10T22:04:39.124Z,99.90
2019-04-10T22:07:27.846Z,99.90
2019-04-10T22:10:17.720Z,99.90
2019-04-10T22:12:51.980Z,99.90
2019-04-10T22:15:30.886Z,99.90
2019-04-10T22:18:00.867Z,99.90
2019-04-10T22:20:30.441Z,99.90
2019-04-10T22:22:59.852Z,99.90
2019-04-10T22:25:38.072Z,99.90
2019-04-10T22:28:13.287Z,99.90
2019-04-10T22:30:42.185Z,99.90
2019-04-10T22:33:14.129Z,99.90
2019-04-10T22:35:44.182Z,99.90
2019-04-10T22:38:13.406Z,99.90
2019-04-10T22:40:42.707Z,99.90
2019-04-10T22:43:12.405Z,99.90
2019-04-10T22:45:41.449Z,99.90
2019-04-10T22:48:15.270Z,99.90
2019-04-10T22:50:49.271Z,99.90
2019-04-10T22:53:19.222Z,99.90
2019-04-10T22:55:48.619Z,99.90
2019-04-10T22:58:17.594Z,99.90
2019-04-10T23:00:46.610Z,99.90
2019-04-10T23:03:15.949Z,99.90
2019-04-10T23:06:00.713Z,99.90
2019-04-10T23:08:29.963Z,99.90
2019-04-10T23:10:59.507Z,99.90
2019-04-10T23:13:29.969Z,99.90
2019-04-10T23:15:59.900Z,99.90
2019-04-10T23:18:31.970Z,99.90
2019-04-10T23:21:04.016Z,99.90
2019-04-10T23:23:32.910Z,99.90
2019-04-10T23:26:03.529Z,99.90
2019-04-10T23:28:33.748Z,99.90
2019-04-10T23:31:03.635Z,99.90
2019-04-10T23:33:33.155Z,99.90
2019-04-10T23:36:03.149Z,99.90
2019-04-10T23:38:35.418Z,99.90
2019-04-10T23:41:07.772Z,99.90
2019-04-10T23:43:37.715Z,99.90
2019-04-10T23:46:06.830Z,99.90
2019-04-10T23:48:35.665Z,99.90
2019-04-10T23:51:04.951Z,99.90
2019-04-10T23:53:33.957Z,99.90
2019-04-10T23:56:04.181Z,99.90
2019-04-10T23:58:33.962Z,99.90
